Terminal Aerodrome Forecast
Issued by NWS San Angelo, TX

Home | Current Version | Previous Version | Text Only | Print | Product List | Glossary On
Versions: 1 2 3 4 5 6 7 8 9 10 11 12 13
000
FTUS44 KSJT 051831 RRA
TAFSJT
TAF
KSJT 051831Z 0519/0618 VRB06KT P6SM FEW250
     FM060500 17006KT P6SM FEW250
     FM061500 17011G16KT P6SM FEW150=

USA.gov is the U.S. government's official web portal to all federal, state and local government web resources and services.